EGLL/LHR METAR and TAF weather

Enter ICAO airport designator
Station Type Date Time Source
EGLL METAR 2019/07/17 12:20 UTC NOAA

EGLL 171220Z AUTO 23007G17KT 200V270 9999 FEW049 25/10 Q1014


Station Type Date Time Source
EGLL Decoded METAR 2019/07/17 12:20 UTC NOAA

London / Heathrow Airport, United Kingdom (EGLL) 51-29N 000-27W 0M
Jul 17, 2019 - 08:20 AM EDT / 2019.07.17 1220 UTC
Wind: from the SW (230 degrees) at 8 MPH (7 KT) gusting to 20 MPH (17 KT) (direction variable):0
Visibility: greater than 7 mile(s):0
Sky conditions: mostly clear
Temperature: 77 F (25 C)
Dew Point: 50 F (10 C)
Relative Humidity: 38%
Pressure (altimeter): 29.94 in. Hg (1014 hPa)
ob: EGLL 171220Z AUTO 23007G17KT 200V270 9999 FEW049 25/10 Q1014
cycle: 12

Station Type Date Time Source
EGLL TAF 2019/07/17 12:12 UTC NOAA

TAF EGLL 171107Z 1712/1818 21006KT 9999 FEW045
TEMPO 1802/1808 BKN010 PROB30
TEMPO 1802/1808 6000 -RADZ BKN006 PROB30
TEMPO 1808/1813 6000 SHRA
BECMG 1810/1813 27010KT

Example: see airport list